Terminal Aerodrome Forecast
Issued by NWS Cleveland, OH

Home | Current Version | Previous Version | Graphics & Text | Print | Product List | Glossary On
Versions: 1 2 3 4 5 6 7 8 9 10 11 12 13 14
000
FTUS41 KCLE 260527
TAFYNG
TAF
KYNG 260527Z 2606/2706 25004KT P6SM SCT025 OVC050
      TEMPO 2607/2611 -SHRA OVC025
     FM261100 26004KT P6SM VCSH OVC025
     FM261600 30008KT P6SM OVC035
     FM270000 33003KT P6SM OVC035=

USA.gov is the U.S. government's official web portal to all federal, state and local government web resources and services.